Salisbury, VT (05769)

11:19 AM EDT on May 03, 2015 (GMT -0400)
Fish Hatchery | | Change Station
CLOSE
Current Station
Personal Weather Station
Location: Salisbury, VT
Elevation: 433 ft
Nearby Weather Stations

Elev 433 ft 43.93 °N, 73.10 °W | Updated 14 seconds ago

Overcast
Overcast
70.5 °F
Feels Like 76 °F
N
4.0
Wind Variable Wind from East
Gusts 8.0 mph

Today
High -- | Low -- °F
--% Chance of Precip.
Yesterday
High -- | Low -- °F
Precip. -- in
5:41 AM 7:57 PM
Full, 100% visible
Pressure 30.03 in
Visibility 10.0 miles
Clouds Overcast 12000 ft
Heat Index 76 °F
Dew Point 40 °F
Humidity 33%
Rainfall 0.00 in
Snow Depth Not available.
UV 3 out of 12
Pollen 11.20 out of 12
Air Quality Not available.
Flu Activity Regional
METAR K6B0 031455Z AUTO 16006KT 10SM OVC120 21/02 A3003 RMK AO2 T02110021

More Conditions Fewer Conditions

Pressure 30.03 in
Visibility 10.0 miles
Clouds Overcast 12000 ft
Heat Index 76 °F
Dew Point 40 °F
Humidity 33%
Rainfall 0.00 in
Snow Depth Not available.
UV 3 out of 12
Pollen 11.20 out of 12
Air Quality Not available.
Flu Activity Regional
METAR K6B0 031455Z AUTO 16006KT 10SM OVC120 21/02 A3003 RMK AO2 T02110021

More Conditions Fewer Conditions

Nepal has a long way to go to dig out and rebuild from a devastating earthquake. We have teamed up with several charities and organizations to make contributing to the relief effort as easy as possible.
How you can help: Portlight Strategies | Red Cross

10-Day Weather Forecast

Almanac

Astronomy

May. 03, 2015 Rise Set
Actual Time
Civil Twilight
Nautical Twilight
Astronomical Twilight
Moon
Length of Visible Light
Length of Day
Tomorrow will be .
, % of the Moon is Illuminated

Today's Extremes

State Highs State Lows

Community

WunderPhotos

Upload Photos

1,818,248 photos uploaded!

WunderBlogs® & News

Nearby

Air Quality

  Air Quality AQ Index Pollutant
Not available.

Snow Depth

Station Depth Elevation

Earthquake Activity

City Distance Mag. Time & Date
Minimum magnitude displayed is 2.5.

Coastal Water Temperatures

Place Temperature

Stations

Nearby Weather Stations

Station Location Temp. Windchill Dew Point Humidity Wind Precip. Elev Updated Type